createdAt,value
2022-11-20T00:01:18.108Z,13.445543219737829
2022-11-20T00:04:16.425Z,13.378744097783875
2022-11-20T00:07:17.020Z,13.395443873661225
2022-11-20T00:11:18.928Z,13.39030548075616
2022-11-20T00:14:17.047Z,13.361402026088035
2022-11-20T00:17:16.886Z,13.380670994843603
2022-11-20T00:21:18.969Z,13.388378583491795
2022-11-20T00:24:17.408Z,13.37810179877306
2022-11-20T00:27:17.281Z,13.349840646799203
2022-11-20T00:31:17.060Z,13.377459499766791
2022-11-20T00:34:16.396Z,13.387093985338288
2022-11-20T00:37:19.475Z,13.36654041735601
2022-11-20T00:41:16.350Z,13.3761749017679
2022-11-20T00:44:17.368Z,13.380028695819146
2022-11-20T00:47:16.880Z,13.358190531693344
2022-11-20T00:51:19.694Z,13.3562636351111
2022-11-20T00:54:16.882Z,13.380028695819146
2022-11-20T00:57:16.890Z,13.370394210997983
2022-11-20T01:01:18.771Z,13.367182716284969
2022-11-20T01:04:17.440Z,13.371036509954228
2022-11-20T01:07:17.012Z,13.359475129437579
2022-11-20T01:11:19.937Z,13.341490762673583
2022-11-20T01:14:19.698Z,13.317083413482123
2022-11-20T01:17:16.739Z,13.357548232828048
2022-11-20T01:21:20.044Z,13.346629152813785
2022-11-20T01:24:20.054Z,13.317725712060929
2022-11-20T01:27:17.471Z,13.338921567712623
2022-11-20T01:31:22.345Z,13.298456756674932
2022-11-20T01:34:18.831Z,13.295887562932695
2022-11-20T01:37:16.837Z,13.297814458232551
2022-11-20T01:43:22.008Z,13.295245264508504
2022-11-20T01:44:19.801Z,13.259918858181118
2022-11-20T01:47:21.917Z,13.257991963686163
2022-11-20T01:51:25.431Z,13.219454082381798
2022-11-20T01:54:23.941Z,13.236796126942863
2022-11-20T01:57:20.843Z,13.209177316798833
2022-11-20T02:01:16.823Z,13.238723020987617
2022-11-20T02:04:17.237Z,13.227803955275158
2022-11-20T02:07:17.880Z,13.228446253221865
2022-11-20T02:11:16.978Z,13.254138174819037
2022-11-20T02:14:16.843Z,13.231657743023607
2022-11-20T02:17:17.292Z,13.245146001432385
2022-11-20T02:21:28.301Z,13.228446253221865
2022-11-20T02:24:19.208Z,13.20082744561987
2022-11-20T02:27:18.260Z,13.220738678161524
2022-11-20T02:31:16.229Z,13.19440446831286
2022-11-20T02:34:16.251Z,13.177062431855393
2022-11-20T02:37:16.975Z,13.142378368885783
2022-11-20T02:41:16.633Z,13.130174720253853
2022-11-20T02:44:16.423Z,13.105767427914907
2022-11-20T02:47:17.096Z,13.159720398713034
2022-11-20T02:51:16.701Z,13.110263507589206
2022-11-20T02:54:16.958Z,13.112190398946405
2022-11-20T02:57:16.857Z,13.103198239629638
2022-11-20T03:01:22.219Z,12.992080915915812
2022-11-20T03:04:17.023Z,12.986300249620399
2022-11-20T03:07:16.731Z,12.975381214289609
2022-11-20T03:11:15.978Z,12.945835595866175
2022-11-20T03:14:16.435Z,12.916289987065193
2022-11-20T03:17:16.894Z,12.884817501317958
2022-11-20T03:21:16.691Z,12.895094230157337
2022-11-20T03:24:17.126Z,12.871971591905822
2022-11-20T03:27:16.822Z,12.840499121533593
2022-11-20T03:31:18.060Z,12.868117819436884
2022-11-20T03:34:16.360Z,12.93042049442165
2022-11-20T03:37:19.751Z,12.881606023794394
2022-11-20T03:41:19.441Z,12.892525047838353
2022-11-20T03:44:16.693Z,12.868117819436884
2022-11-20T03:47:16.673Z,12.875183069088326
2022-11-20T03:51:18.818Z,12.875183069088326
2022-11-20T03:54:16.837Z,12.880963728303323
2022-11-20T03:57:19.163Z,12.860410274990135
2022-11-20T04:01:19.263Z,12.797465353185908
2022-11-20T04:04:16.639Z,12.83792994076075
2022-11-20T04:07:17.264Z,12.796180763399752
2022-11-20T04:11:19.028Z,12.792969289013945
2022-11-20T04:14:17.326Z,12.88224831929001
2022-11-20T04:17:17.452Z,12.771773560918882
2022-11-20T04:21:16.177Z,12.849491254811529
2022-11-20T04:24:17.494Z,12.782050276952578
2022-11-20T04:27:16.696Z,12.741585714302436
2022-11-20T04:31:25.192Z,12.798107648085807
2022-11-20T04:34:16.830Z,12.73002441400322
2022-11-20T04:37:17.272Z,12.751862426916432
2022-11-20T04:41:18.384Z,12.742228008806705
2022-11-20T04:44:16.651Z,12.68763299217835
2022-11-20T04:47:16.439Z,12.629184246086515
2022-11-20T04:51:16.401Z,12.57715847080335
2022-11-20T04:54:17.462Z,12.513571452641918
2022-11-20T04:57:16.940Z,12.533482534343875
2022-11-20T05:01:20.352Z,12.48852203348224
2022-11-20T05:04:17.320Z,12.48852203348224
2022-11-20T05:07:17.944Z,12.464114913774484
2022-11-20T05:11:18.565Z,12.456407403652065
2022-11-20T05:14:17.561Z,12.381901506229132
2022-11-20T05:17:17.421Z,12.35171378934756
2022-11-20T05:21:16.792Z,12.432642584896893
2022-11-20T05:24:16.601Z,12.379332338443874
2022-11-20T05:27:16.393Z,12.386397550028414
2022-11-20T05:31:24.968Z,12.332445039143568
2022-11-20T05:34:16.963Z,12.32088379098568
2022-11-20T05:37:17.379Z,12.38447067408715
2022-11-20T05:41:19.000Z,12.359421290575119
2022-11-20T05:44:16.681Z,12.376120878814618
2022-11-20T05:47:17.290Z,12.351071497608155
2022-11-20T05:51:18.434Z,12.370982543644278
2022-11-20T05:54:16.927Z,12.328591289593897
2022-11-20T05:57:16.950Z,12.337583372131121
2022-11-20T06:01:19.239Z,12.34657545555965
2022-11-20T06:04:16.433Z,12.283630890277346
2022-11-20T06:07:16.334Z,12.302899630113098
2022-11-20T06:11:17.792Z,12.324737540207934
2022-11-20T06:14:17.154Z,12.338867955423485
2022-11-20T06:17:16.931Z,12.345290872158149
2022-11-20T06:21:18.629Z,12.259866116783178
2022-11-20T06:24:17.229Z,12.335014205600965
2022-11-20T06:27:16.636Z,12.379974630383368
2022-11-20T06:31:19.003Z,12.326664414880451
2022-11-20T06:34:17.485Z,12.282346307767147
2022-11-20T06:37:17.670Z,12.277850269124702
2022-11-20T06:41:19.339Z,12.3279489980182
2022-11-20T06:44:17.382Z,12.363275041434463
2022-11-20T06:47:16.963Z,12.354282956350653
2022-11-20T06:51:16.450Z,12.300972755945349
2022-11-20T06:54:16.311Z,12.316387750433297
2022-11-20T06:57:16.267Z,12.30803796142718
2022-11-20T07:01:16.787Z,12.293907551013763
2022-11-20T07:04:17.263Z,12.370340251768448
2022-11-20T07:07:17.261Z,12.354282956350653
2022-11-20T07:11:16.618Z,12.363275041434463
2022-11-20T07:14:17.220Z,12.415300694058624
2022-11-20T07:17:17.133Z,12.443561554903226
2022-11-20T07:21:17.530Z,12.421081323969702
2022-11-20T07:24:17.091Z,12.485310569987632
2022-11-20T07:27:17.132Z,12.507790816837314
2022-11-20T07:31:20.169Z,12.494944960812518
2022-11-20T07:34:16.235Z,12.518709795888572
2022-11-20T07:37:16.298Z,12.456407403652065
2022-11-20T07:41:16.503Z,12.494302668059026
2022-11-20T07:44:16.066Z,12.47374930234837
2022-11-20T07:47:16.380Z,12.491091204359781
2022-11-20T07:51:16.869Z,12.467968669081255
2022-11-20T07:54:18.025Z,12.480172228632728
2022-11-20T07:57:17.378Z,12.476318472807543
2022-11-20T08:01:16.088Z,12.462188036182487
2022-11-20T08:04:17.316Z,12.487879740774224
2022-11-20T08:07:16.535Z,12.442919262513533
2022-11-20T08:21:16.452Z,12.376763170731374
2022-11-20T08:24:17.103Z,12.388966718013762
2022-11-20T08:27:16.958Z,12.372909419299049
2022-11-20T08:31:16.344Z,12.426219661977665
2022-11-20T08:34:19.030Z,12.433927169535309
2022-11-20T08:37:16.692Z,12.421081323969702
2022-11-20T08:41:35.076Z,12.426861954249125
2022-11-20T08:44:17.023Z,12.407593188083501
2022-11-20T08:47:17.124Z,12.428788831090788
2022-11-20T08:51:17.117Z,12.48209910660671
2022-11-20T08:54:16.420Z,12.538620878718302
2022-11-20T08:57:16.718Z,12.563028018471323
2022-11-20T09:01:16.929Z,12.57523159081029
2022-11-20T09:04:16.636Z,12.577800764143467
2022-11-20T09:07:16.653Z,12.651022234725314
2022-11-20T09:11:16.563Z,12.716536232182989
2022-11-20T09:14:17.082Z,12.741585714302436
2022-11-20T09:17:16.697Z,12.77113126620543
2022-11-20T09:21:16.568Z,12.8417837119473
2022-11-20T09:24:17.471Z,12.886744387886665
2022-11-20T09:27:29.859Z,12.954827739585108
2022-11-20T09:31:22.347Z,13.0376839629389
2022-11-20T09:34:16.593Z,13.098059863277376
2022-11-20T09:37:16.970Z,13.18541230084702
2022-11-20T09:41:36.641Z,13.268268734798857
2022-11-20T09:44:34.945Z,13.333140879316488
2022-11-20T09:47:27.384Z,13.387093985338288
2022-11-20T09:51:48.254Z,13.420493543241173
2022-11-20T09:54:22.674Z,13.480869698347306
2022-11-20T09:57:23.437Z,13.51619619071289
2022-11-20T10:01:19.026Z,13.568222504516962
2022-11-20T10:04:19.979Z,13.653006190940868
2022-11-20T10:07:32.248Z,13.834777543267501
2022-11-20T10:11:30.701Z,14.05316056832171
2022-11-20T10:14:26.400Z,14.048022138163741
2022-11-20T10:17:29.190Z,14.076283507634162
2022-11-20T10:21:27.432Z,14.137944707946826
2022-11-20T10:25:25.113Z,14.155286928085843
2022-11-20T10:28:13.423Z,14.186759854583306
2022-11-20T10:31:34.670Z,14.096837236415103
2022-11-20T10:34:24.034Z,14.146936969827312
2022-11-20T10:37:19.199Z,14.161067668868872
2022-11-20T10:41:39.036Z,14.358897686553338
2022-11-20T10:44:20.732Z,14.493139729951872
2022-11-20T10:47:18.479Z,14.724370509692017
2022-11-20T10:51:34.821Z,14.867605427192848
2022-11-20T10:54:23.665Z,15.191972331889337
2022-11-20T10:57:32.922Z,15.21766480955157
2022-11-20T11:01:18.680Z,15.192614643742218
2022-11-20T11:04:32.837Z,15.179126095786705
2022-11-20T11:07:24.002Z,15.166922173174044
2022-11-20T11:11:22.764Z,15.125171924019014
2022-11-20T11:14:16.780Z,15.282538348028993
2022-11-20T11:17:23.965Z,15.333923361924917
2022-11-20T11:21:23.313Z,15.440547358609274
2022-11-20T11:24:41.036Z,15.45146669064452
2022-11-20T11:27:19.328Z,15.473947672502344
2022-11-20T11:31:38.664Z,15.493217089957124
2022-11-20T11:34:18.279Z,15.495144031927703
2022-11-20T11:37:21.400Z,15.481013125093886
2022-11-20T11:41:20.236Z,15.461101396472895
2022-11-20T11:45:22.820Z,15.448255122262434
2022-11-20T11:47:26.671Z,15.467524534260246
2022-11-20T11:51:20.577Z,15.508632626867712
2022-11-20T11:54:20.875Z,15.534325194206122
2022-11-20T11:57:23.847Z,15.525975109023056
2022-11-20T12:01:28.312Z,15.495144031927703
2022-11-20T12:04:26.093Z,15.613329884357881
2022-11-20T12:07:45.448Z,15.591491182638856
2022-11-20T12:11:24.619Z,15.612687569526406
2022-11-20T12:14:21.778Z,15.596629700217454
2022-11-20T12:17:36.764Z,15.612687569526406
2022-11-20T12:21:21.225Z,15.68912306639977
2022-11-20T12:25:12.072Z,15.705823267565938
2022-11-20T12:31:28.881Z,15.888883366496975
2022-11-20T12:34:32.927Z,15.97688080866501
2022-11-20T12:37:33.834Z,16.077724697706525
2022-11-20T12:45:26.118Z,16.267851060907653
2022-11-20T12:47:25.531Z,16.325659831411123
2022-11-20T12:51:30.665Z,16.396315045382018
2022-11-20T12:54:37.828Z,16.534414031566122
2022-11-20T12:57:24.767Z,16.669943938663437
2022-11-20T13:01:49.722Z,16.872918017042046
2022-11-20T13:04:34.165Z,16.85878689561296
2022-11-20T13:07:17.708Z,16.808685664644962
2022-11-20T13:11:22.816Z,16.747022649126393
2022-11-20T13:14:31.732Z,16.81382425116326
2022-11-20T13:17:21.613Z,16.903749562345276
2022-11-20T13:21:19.293Z,17.00395215694016
2022-11-20T13:24:24.823Z,16.96284338679552
2022-11-20T13:27:22.153Z,16.96733965762287
2022-11-20T13:31:30.557Z,16.982755445008298
2022-11-20T13:34:25.698Z,17.055980470859502
2022-11-20T13:37:26.826Z,17.095804632536964
2022-11-20T13:41:36.639Z,17.23390468344378
2022-11-20T13:44:34.132Z,17.270517290331554
2022-11-20T13:47:21.779Z,17.296210356618758
2022-11-20T13:51:31.720Z,17.40347898696864
2022-11-20T13:54:40.292Z,17.476062024355997
2022-11-20T13:57:50.006Z,17.52873293740122
2022-11-20T14:01:20.237Z,17.56149169142527
2022-11-20T14:04:24.101Z,17.549929776889712
2022-11-20T14:07:21.706Z,17.580761552258718
2022-11-20T14:11:19.027Z,17.6777532472639
2022-11-20T14:14:18.569Z,17.638571159315415
2022-11-20T14:17:20.064Z,17.571768950027128
2022-11-20T14:21:23.209Z,17.521667325338875
2022-11-20T14:24:20.977Z,17.38485149116168
2022-11-20T14:27:19.844Z,17.296210356618758
2022-11-20T14:31:24.196Z,17.12213997486115
2022-11-20T14:34:20.687Z,17.0110177286846
2022-11-20T14:37:22.103Z,16.955777818802744
2022-11-20T14:41:19.067Z,16.795839199622513
2022-11-20T14:44:16.656Z,16.68279038585979
2022-11-20T14:47:21.155Z,16.578734215874373
2022-11-20T14:51:34.684Z,16.386037919930185
2022-11-20T14:54:18.888Z,16.308317196392455
2022-11-20T14:57:26.636Z,16.184349568542622
2022-11-20T15:01:26.518Z,16.04368184365012
2022-11-20T15:04:17.017Z,15.888883366496975
2022-11-20T15:07:25.626Z,15.779047262814128
2022-11-20T15:11:19.621Z,15.599198959115892
2022-11-20T15:14:18.837Z,15.586352665351296
2022-11-20T15:17:17.283Z,15.426416460279233
2022-11-20T15:21:17.985Z,15.291530723359847
2022-11-20T15:24:17.044Z,15.1161795651773
2022-11-20T15:27:16.813Z,15.05194845651422
2022-11-20T15:31:20.473Z,14.942113366067588
2022-11-20T15:34:19.401Z,14.79373985853781
2022-11-20T15:37:16.754Z,14.642155053819078
2022-11-20T15:41:15.832Z,14.530393537972122
2022-11-20T15:44:16.121Z,14.443682111905309
2022-11-20T15:47:17.842Z,14.342840039161093
2022-11-20T15:51:25.045Z,14.23429041733625
2022-11-20T15:54:22.486Z,14.17455606546173
2022-11-20T15:57:16.694Z,14.067291252756785
2022-11-20T16:01:18.900Z,14.004345493571691
2022-11-20T16:04:17.279Z,13.912496147814455
2022-11-20T16:07:16.415Z,13.798166322872566
2022-11-20T16:11:17.810Z,13.718520911992528
2022-11-20T16:21:16.414Z,13.464169906744791
2022-11-20T16:24:16.395Z,13.414712849647277
2022-11-20T16:27:16.793Z,13.339563866446042
2022-11-20T17:11:20.449Z,12.205271390442794
2022-11-20T17:14:18.730Z,12.155172729297556
2022-11-20T17:17:16.900Z,12.044056566771996
2022-11-20T17:21:17.219Z,11.94385945020922
2022-11-20T17:24:17.127Z,11.883484318020873
2022-11-20T17:27:16.304Z,11.816044058298939
2022-11-20T17:31:18.848Z,11.756953586227974
2022-11-20T17:34:17.062Z,11.632349890843035
2022-11-20T17:37:16.072Z,11.530868657140308
2022-11-20T17:41:18.726Z,11.496185223550128
2022-11-20T17:44:16.168Z,11.498112080623923
2022-11-20T17:47:17.380Z,11.510957795495141
2022-11-20T17:51:18.840Z,11.437737245094558
2022-11-20T17:54:16.837Z,11.308637997560435
2022-11-20T17:58:21.635Z,11.214222246276131
2022-11-20T18:01:16.921Z,11.142286501730359
2022-11-20T18:04:17.067Z,11.058147444329006
2022-11-20T18:07:17.142Z,11.02025277984294
2022-11-20T18:11:23.984Z,10.966943363381143
2022-11-20T18:14:28.775Z,10.905926599855684
2022-11-20T18:17:20.554Z,10.868674280196227
2022-11-20T18:21:16.060Z,10.838487066865492
2022-11-20T18:24:19.442Z,10.750494608728422
2022-11-20T18:27:18.363Z,10.686266590983086
2022-11-20T18:31:16.809Z,10.662502235942885
2022-11-20T18:34:16.756Z,10.568729436263675
2022-11-20T18:37:17.195Z,10.526339024387198
2022-11-20T18:44:52.157Z,10.444127372966978
2022-11-20T18:47:22.608Z,10.295118944670321
2022-11-20T18:51:17.949Z,10.144826208894665
2022-11-20T18:54:17.231Z,10.102435995106134
2022-11-20T18:57:18.221Z,10.106289650086547
2022-11-20T19:01:15.919Z,10.112712408751031
2022-11-20T19:04:17.370Z,9.98168822198095
2022-11-20T19:07:16.896Z,9.916818474063712
2022-11-20T19:11:16.368Z,9.910395729269021
2022-11-20T19:14:17.084Z,9.786436843814226
2022-11-20T19:17:18.401Z,9.76716863848851
2022-11-20T19:21:18.696Z,9.643852221319685
2022-11-20T19:24:16.961Z,9.597608608100563
2022-11-20T19:27:16.720Z,9.592470430309186
2022-11-20T19:31:24.267Z,9.532096863061088
2022-11-20T19:34:20.304Z,9.577055898681284
2022-11-20T19:37:21.470Z,9.53595049381256
2022-11-20T19:41:18.611Z,9.40556941098339
2022-11-20T19:44:22.747Z,9.385016745074335
2022-11-20T19:47:17.062Z,9.309871099982411
2022-11-20T19:51:18.590Z,9.3015215877037
2022-11-20T19:54:17.064Z,9.324001045589466
2022-11-20T19:57:16.793Z,9.240505944380129
2022-11-20T20:01:19.287Z,9.222522394178668
2022-11-20T20:04:16.454Z,9.217384237633087
2022-11-20T20:07:18.821Z,9.1685717649656
2022-11-20T20:11:18.338Z,9.135173772484995
2022-11-20T20:14:16.847Z,9.075442778132947
2022-11-20T20:17:17.244Z,9.036906673617432
2022-11-20T20:21:18.647Z,9.113978899019367
2022-11-20T20:24:17.739Z,9.06323967659846
2022-11-20T20:27:18.357Z,9.013785018766157
2022-11-20T20:31:18.655Z,8.979102547539606
2022-11-20T20:34:16.603Z,8.965614923421526
2022-11-20T20:37:16.108Z,8.871843877848368
2022-11-20T20:41:19.787Z,8.776146129911012
2022-11-20T20:45:22.544Z,8.667603168875212
2022-11-20T20:47:17.592Z,8.690082469668505
2022-11-20T20:51:17.668Z,8.645123873652574
2022-11-20T20:54:16.444Z,8.636132157123303
2022-11-20T20:57:16.285Z,8.559702602610923
2022-11-20T21:01:20.732Z,8.576401491376236
2022-11-20T21:04:18.408Z,8.55006862972159
2022-11-20T21:07:18.237Z,8.508963690223117
2022-11-20T21:11:19.588Z,8.474281412009532
2022-11-20T21:14:16.931Z,8.405559159163385
2022-11-20T21:17:16.700Z,8.442810467328309
2022-11-20T21:22:21.187Z,8.405559159163385
2022-11-20T21:24:16.894Z,8.389502565534439
2022-11-20T21:27:16.661Z,8.406843686776483
2022-11-20T21:31:18.388Z,8.334910168455462
2022-11-20T21:34:16.780Z,8.263618969972686
2022-11-20T21:37:16.561Z,8.234074886121471
2022-11-20T21:41:16.062Z,8.153149836153261
2022-11-20T21:44:30.526Z,8.08185878052027
2022-11-20T21:47:16.534Z,8.09149270368298
2022-11-20T21:51:19.031Z,8.076720688585192
2022-11-20T21:54:18.241Z,8.031120135414767
2022-11-20T21:57:16.825Z,7.974601171750055
2022-11-20T22:01:21.045Z,7.99515351809905
2022-11-20T22:04:19.024Z,8.023413001932294
2022-11-20T22:07:16.662Z,7.981023779483894
2022-11-20T22:11:20.599Z,7.840368774184026
2022-11-20T22:14:24.755Z,7.760728593917156
2022-11-20T22:17:16.331Z,7.702925281064017
2022-11-20T22:21:19.287Z,7.625211996278904
2022-11-20T22:24:19.975Z,7.639341679469453
2022-11-20T22:27:16.691Z,7.661820725445068
2022-11-20T22:31:17.203Z,7.5513523245146645
2022-11-20T22:34:16.765Z,7.52373524530276
2022-11-20T22:37:17.077Z,7.515385897428859
2022-11-20T22:41:18.429Z,7.471712397996816
2022-11-20T22:44:17.298Z,7.372162588177252
2022-11-20T22:47:16.771Z,7.3773006402037025
2022-11-20T22:51:19.351Z,7.377942896727473
2022-11-20T22:54:23.358Z,7.32142434004345
2022-11-20T22:57:16.175Z,7.273897399180351
2022-11-20T23:01:18.666Z,7.246922660038399
2022-11-20T23:04:16.631Z,7.2045338004511
2022-11-20T23:07:18.314Z,7.214167630436077
2022-11-20T23:11:19.151Z,7.144161822508613
2022-11-20T23:14:17.157Z,7.120398395403117
2022-11-20T23:17:44.678Z,7.059384219185449
2022-11-20T23:21:18.356Z,7.105626538448268
2022-11-20T23:24:17.757Z,7.056815202139842
2022-11-20T23:27:19.650Z,7.046539134685008
2022-11-20T23:31:16.672Z,7.046539134685008
2022-11-20T23:34:16.475Z,7.029840527553825
2022-11-20T23:37:16.380Z,7.067733525086169
2022-11-20T23:41:16.270Z,7.061310982017403
2022-11-20T23:44:16.272Z,7.034978560189847
2022-11-20T23:47:16.991Z,7.040758847253255
2022-11-20T23:51:17.746Z,7.043327863844115
2022-11-20T23:54:18.115Z,7.070944796791082
2022-11-20T23:57:17.524Z,7.085074393643299
